Time;durP1;ratioP1;P1;durP2;ratioP2;P2;SDS_P1;SDS_P2;PMS_P1;PMS_P2;Temp;Humidity;BMP_temperature;BMP_pressure;BME280_temperature;BME280_humidity;BME280_pressure;Samples;Min_cycle;Max_cycle;Signal;HPM_P1;HPM_P2
2022/03/19 00:02:01;;;;;;;213.00;95.75;;;;;;;;;;5096135;28;20027;-65
2022/03/19 00:04:27;;;;;;;233.35;104.93;;;;;;;;;;5095824;28;20028;-65
2022/03/19 00:06:53;;;;;;;278.13;118.77;;;;;;;;;;5095818;28;20035;-65
2022/03/19 00:09:20;;;;;;;266.93;115.23;;;;;;;;;;5096080;28;20065;-65
2022/03/19 00:11:47;;;;;;;261.93;113.73;;;;;;;;;;5095693;28;20024;-65
2022/03/19 00:14:14;;;;;;;264.92;111.65;;;;;;;;;;5095629;28;20024;-65
2022/03/19 00:16:40;;;;;;;246.30;105.27;;;;;;;;;;5064900;28;20127;-65
2022/03/19 00:19:08;;;;;;;233.82;94.57;;;;;;;;;;5074013;28;20073;-65
2022/03/19 00:21:34;;;;;;;188.73;83.07;;;;;;;;;;5056041;28;20072;-65
2022/03/19 00:24:01;;;;;;;176.63;78.53;;;;;;;;;;5073789;28;20029;-65
2022/03/19 00:26:27;;;;;;;186.07;77.17;;;;;;;;;;5055763;28;20035;-65
2022/03/19 00:28:54;;;;;;;164.57;77.40;;;;;;;;;;5074667;28;20469;-66
2022/03/19 00:31:20;;;;;;;170.80;73.50;;;;;;;;;;5055684;28;20119;-66
2022/03/19 00:33:46;;;;;;;165.40;74.93;;;;;;;;;;5074835;28;20085;-65
2022/03/19 00:36:12;;;;;;;194.27;86.87;;;;;;;;;;5075013;28;20028;-66
2022/03/19 00:38:38;;;;;;;147.90;65.53;;;;;;;;;;5075023;28;20075;-65
2022/03/19 00:41:04;;;;;;;158.80;69.17;;;;;;;;;;5074920;28;20033;-66
2022/03/19 00:43:31;;;;;;;143.47;63.97;;;;;;;;;;5074570;28;20113;-65
2022/03/19 00:45:57;;;;;;;131.90;58.13;;;;;;;;;;5056782;28;20028;-65
2022/03/19 00:48:23;;;;;;;125.43;55.80;;;;;;;;;;5056838;28;20078;-66
2022/03/19 00:50:49;;;;;;;123.67;57.47;;;;;;;;;;5074450;28;20042;-66
2022/03/19 00:53:15;;;;;;;137.90;61.50;;;;;;;;;;5074912;28;20025;-65
2022/03/19 00:55:42;;;;;;;166.20;76.90;;;;;;;;;;5074594;28;20493;-65
2022/03/19 00:58:08;;;;;;;182.40;80.23;;;;;;;;;;5056612;28;20089;-65
2022/03/19 01:00:34;;;;;;;178.53;77.90;;;;;;;;;;5074572;28;20036;-66
2022/03/19 01:03:00;;;;;;;167.90;76.03;;;;;;;;;;5074716;28;20028;-65
2022/03/19 01:05:27;;;;;;;138.77;63.60;;;;;;;;;;5073290;28;20016;-65
2022/03/19 01:07:55;;;;;;;348.13;117.33;;;;;;;;;;5074402;28;20365;-65
2022/03/19 01:10:22;;;;;;;331.00;119.43;;;;;;;;;;5074343;28;20028;-65
2022/03/19 01:12:49;;;;;;;274.87;98.10;;;;;;;;;;5074255;28;20035;-65
2022/03/19 01:15:16;;;;;;;193.97;76.57;;;;;;;;;;5073905;28;20028;-65
2022/03/19 01:17:42;;;;;;;203.43;83.37;;;;;;;;;;5056139;28;20031;-65
2022/03/19 01:20:10;;;;;;;190.33;79.67;;;;;;;;;;5074101;28;20059;-65
2022/03/19 01:22:37;;;;;;;202.73;84.30;;;;;;;;;;5074088;28;20059;-66
2022/03/19 01:25:05;;;;;;;200.10;88.90;;;;;;;;;;5056081;28;20428;-65
2022/03/19 01:27:34;;;;;;;192.37;86.73;;;;;;;;;;5055973;28;20102;-65
2022/03/19 01:30:00;;;;;;;147.77;68.75;;;;;;;;;;5074225;28;20036;-65
2022/03/19 01:32:26;;;;;;;119.47;53.93;;;;;;;;;;5073847;28;20016;-65
2022/03/19 01:34:53;;;;;;;128.13;61.97;;;;;;;;;;5073838;28;20086;-65
2022/03/19 01:37:20;;;;;;;99.37;48.77;;;;;;;;;;5055817;28;20029;-66
2022/03/19 01:39:46;;;;;;;100.13;47.90;;;;;;;;;;5073758;28;20068;-66
2022/03/19 01:42:12;;;;;;;112.00;50.47;;;;;;;;;;5073748;28;20029;-66
2022/03/19 01:44:38;;;;;;;103.07;50.20;;;;;;;;;;5055241;28;20049;-66
2022/03/19 01:47:08;;;;;;;109.17;50.47;;;;;;;;;;5055613;28;20025;-67
2022/03/19 01:49:34;;;;;;;98.83;48.43;;;;;;;;;;5055691;28;20028;-68
2022/03/19 01:52:00;;;;;;;120.93;57.00;;;;;;;;;;5073485;28;20020;-68
2022/03/19 01:54:29;;;;;;;104.80;50.30;;;;;;;;;;5055504;28;20025;-68
2022/03/19 01:56:56;;;;;;;103.33;50.77;;;;;;;;;;5073427;28;20032;-67
2022/03/19 01:59:27;;;;;;;104.37;53.43;;;;;;;;;;5073315;28;20476;-67
2022/03/19 02:01:53;;;;;;;122.68;54.55;;;;;;;;;;5073381;28;20028;-67
2022/03/19 02:04:21;;;;;;;115.83;58.73;;;;;;;;;;5073285;28;20020;-67
2022/03/19 02:06:47;;;;;;;113.33;58.10;;;;;;;;;;5055383;28;20070;-67
2022/03/19 02:09:14;;;;;;;98.13;48.80;;;;;;;;;;5073583;28;20013;-68
2022/03/19 02:11:40;;;;;;;95.63;47.13;;;;;;;;;;5073283;28;20024;-68
2022/03/19 02:14:06;;;;;;;109.40;50.97;;;;;;;;;;5073215;28;20012;-68
2022/03/19 02:16:33;;;;;;;96.60;48.13;;;;;;;;;;5073052;28;20036;-67
2022/03/19 02:19:00;;;;;;;106.80;48.67;;;;;;;;;;5073213;28;20027;-67
2022/03/19 02:21:26;;;;;;;95.13;46.83;;;;;;;;;;5055028;28;20086;-68
2022/03/19 02:26:44;;;;;;;;;;;;;;;;;;5073584;28;20051;-67
2022/03/19 02:29:10;;;;;;;94.43;45.40;;;;;;;;;;5073107;28;20348;-69
2022/03/19 02:31:40;;;;;;;97.10;45.27;;;;;;;;;;5073031;28;20509;-65
2022/03/19 02:34:08;;;;;;;91.73;45.20;;;;;;;;;;5073026;28;20021;-64
2022/03/19 02:36:35;;;;;;;95.23;46.87;;;;;;;;;;5072971;28;20020;-65
2022/03/19 02:39:08;;;;;;;90.23;45.83;;;;;;;;;;5054957;28;20040;-65
2022/03/19 02:41:34;;;;;;;93.57;43.73;;;;;;;;;;5073037;28;20071;-65
2022/03/19 02:44:01;;;;;;;91.40;43.57;;;;;;;;;;5072851;28;20041;-64
2022/03/19 02:46:37;;;;;;;95.13;48.90;;;;;;;;;;5072889;28;20040;-65
2022/03/19 02:49:03;;;;;;;102.20;47.13;;;;;;;;;;5072937;28;20078;-64
2022/03/19 02:51:30;;;;;;;82.00;41.13;;;;;;;;;;5072811;28;20031;-65
2022/03/19 02:53:56;;;;;;;87.33;43.53;;;;;;;;;;5054787;28;20025;-65
2022/03/19 02:56:22;;;;;;;86.30;41.13;;;;;;;;;;5072745;28;20027;-65
2022/03/19 02:58:48;;;;;;;89.00;43.40;;;;;;;;;;5072784;28;20035;-65
2022/03/19 03:01:14;;;;;;;90.60;44.13;;;;;;;;;;5054667;28;20039;-65
2022/03/19 03:03:41;;;;;;;83.43;41.60;;;;;;;;;;5072697;28;20453;-65
2022/03/19 03:06:07;;;;;;;88.33;42.37;;;;;;;;;;5072646;28;20020;-65
2022/03/19 03:08:33;;;;;;;99.20;43.07;;;;;;;;;;5072684;28;20033;-65
2022/03/19 03:10:59;;;;;;;100.83;45.80;;;;;;;;;;5072686;28;20115;-65
2022/03/19 03:13:25;;;;;;;88.23;41.77;;;;;;;;;;5072878;28;20370;-65
2022/03/19 03:15:51;;;;;;;92.10;43.97;;;;;;;;;;5072848;28;20457;-65
2022/03/19 03:18:18;;;;;;;87.53;43.63;;;;;;;;;;5072566;28;20024;-65
2022/03/19 03:20:44;;;;;;;87.33;43.40;;;;;;;;;;5072533;28;20068;-68
2022/03/19 03:23:11;;;;;;;88.33;42.90;;;;;;;;;;5072227;28;20465;-67
2022/03/19 03:25:37;;;;;;;99.10;48.17;;;;;;;;;;5072532;28;20025;-68
2022/03/19 03:28:03;;;;;;;116.80;51.80;;;;;;;;;;5073813;28;20032;-68
2022/03/19 03:30:29;;;;;;;102.43;49.67;;;;;;;;;;5076285;28;20056;-66
2022/03/19 03:32:55;;;;;;;93.50;48.90;;;;;;;;;;5075877;28;20397;-68
2022/03/19 03:35:25;;;;;;;104.27;48.27;;;;;;;;;;5058135;28;20028;-67
2022/03/19 03:37:55;;;;;;;113.17;50.47;;;;;;;;;;5058421;28;20474;-67
2022/03/19 03:40:21;;;;;;;91.87;45.03;;;;;;;;;;5076016;28;20075;-67
2022/03/19 03:42:48;;;;;;;86.07;42.13;;;;;;;;;;5075773;28;20116;-66
2022/03/19 03:45:14;;;;;;;85.20;40.37;;;;;;;;;;5076220;28;20021;-66
2022/03/19 03:47:40;;;;;;;89.60;43.20;;;;;;;;;;5057952;28;20465;-67
2022/03/19 03:50:07;;;;;;;101.10;43.77;;;;;;;;;;5076178;28;20111;-67
2022/03/19 03:52:33;;;;;;;98.93;45.43;;;;;;;;;;5075854;28;20021;-68
2022/03/19 03:54:59;;;;;;;107.90;44.50;;;;;;;;;;5075457;28;20473;-67
2022/03/19 03:57:25;;;;;;;102.40;44.73;;;;;;;;;;5075749;28;20024;-68
2022/03/19 03:59:52;;;;;;;96.73;41.83;;;;;;;;;;5075850;28;20087;-68
2022/03/19 04:02:18;;;;;;;91.70;42.13;;;;;;;;;;5075613;28;20025;-68
2022/03/19 04:04:45;;;;;;;97.17;42.60;;;;;;;;;;5075614;28;20099;-68
2022/03/19 04:07:11;;;;;;;97.33;43.83;;;;;;;;;;5075532;28;20047;-68
2022/03/19 04:09:37;;;;;;;101.90;43.07;;;;;;;;;;5075614;28;20162;-68
2022/03/19 04:12:03;;;;;;;95.30;43.37;;;;;;;;;;5075498;28;20024;-67
2022/03/19 04:14:30;;;;;;;97.63;40.80;;;;;;;;;;5057413;28;20025;-69
2022/03/19 04:16:56;;;;;;;83.13;38.00;;;;;;;;;;5075654;28;20032;-70
2022/03/19 04:19:22;;;;;;;82.17;38.97;;;;;;;;;;5075299;28;20081;-69
2022/03/19 04:21:48;;;;;;;81.87;38.63;;;;;;;;;;5075371;28;20033;-70
2022/03/19 04:24:14;;;;;;;84.20;39.77;;;;;;;;;;5075291;28;20027;-68
2022/03/19 04:26:41;;;;;;;82.57;39.10;;;;;;;;;;5075189;28;20028;-70
2022/03/19 04:29:07;;;;;;;88.57;44.30;;;;;;;;;;5075159;28;20021;-71
2022/03/19 04:31:33;;;;;;;91.17;46.03;;;;;;;;;;5075488;28;20550;-69
2022/03/19 04:33:59;;;;;;;77.97;39.33;;;;;;;;;;5057024;28;20034;-69
2022/03/19 04:36:32;;;;;;;76.27;35.90;;;;;;;;;;5074727;28;20549;-70
2022/03/19 04:39:05;;;;;;;77.60;36.23;;;;;;;;;;5056648;28;20081;-70
2022/03/19 04:41:32;;;;;;;76.70;35.23;;;;;;;;;;5074913;28;20390;-70
2022/03/19 04:43:58;;;;;;;78.20;36.13;;;;;;;;;;5053251;28;20147;-70
2022/03/19 04:46:24;;;;;;;236.50;83.60;;;;;;;;;;5054590;28;20032;-70
2022/03/19 04:48:50;;;;;;;221.27;79.20;;;;;;;;;;5053444;28;20527;-70
2022/03/19 04:51:21;;;;;;;340.80;110.90;;;;;;;;;;5053536;28;20040;-70
2022/03/19 04:53:50;;;;;;;228.20;88.50;;;;;;;;;;5053410;28;20029;-70
2022/03/19 04:56:20;;;;;;;175.70;66.93;;;;;;;;;;5054716;28;20072;-69
2022/03/19 04:58:46;;;;;;;119.40;51.00;;;;;;;;;;5053585;28;20445;-70
2022/03/19 05:01:12;;;;;;;96.47;43.00;;;;;;;;;;5054513;28;20037;-70
2022/03/19 05:03:39;;;;;;;89.87;38.40;;;;;;;;;;5054490;28;20025;-70
2022/03/19 05:06:05;;;;;;;85.53;39.10;;;;;;;;;;5053144;28;20025;-71
2022/03/19 05:08:31;;;;;;;81.07;37.70;;;;;;;;;;5053106;28;20063;-70
2022/03/19 05:11:12;;;;;;;94.83;41.47;;;;;;;;;;5054430;28;20035;-70
2022/03/19 05:13:39;;;;;;;76.95;37.78;;;;;;;;;;5052804;28;20223;-72
2022/03/19 05:16:05;;;;;;;77.40;36.97;;;;;;;;;;5054280;28;20373;-69
2022/03/19 05:18:31;;;;;;;88.73;39.87;;;;;;;;;;5054213;28;20020;-70
2022/03/19 05:20:57;;;;;;;87.73;40.03;;;;;;;;;;5054159;28;20040;-68
2022/03/19 05:23:24;;;;;;;86.97;40.40;;;;;;;;;;5052820;28;20025;-69
2022/03/19 05:25:52;;;;;;;82.77;41.90;;;;;;;;;;5053811;28;20024;-70
2022/03/19 05:28:18;;;;;;;81.27;41.63;;;;;;;;;;5052741;28;20033;-70
2022/03/19 05:30:44;;;;;;;78.50;39.77;;;;;;;;;;5052740;28;20021;-70
2022/03/19 05:33:16;;;;;;;111.40;43.73;;;;;;;;;;5053796;28;20025;-70
2022/03/19 05:35:44;;;;;;;91.93;41.80;;;;;;;;;;5053898;28;20029;-70
2022/03/19 05:38:11;;;;;;;90.33;41.50;;;;;;;;;;5052523;28;20112;-70
2022/03/19 05:40:37;;;;;;;88.17;40.97;;;;;;;;;;5053777;28;20032;-69
2022/03/19 05:43:04;;;;;;;77.63;40.40;;;;;;;;;;5057032;28;20156;-67
2022/03/19 05:45:30;;;;;;;86.50;42.73;;;;;;;;;;5073671;28;20028;-67
2022/03/19 05:47:57;;;;;;;90.27;42.20;;;;;;;;;;5073586;28;20103;-68
2022/03/19 05:50:23;;;;;;;87.60;42.03;;;;;;;;;;5071635;28;20032;-68
2022/03/19 05:52:50;;;;;;;96.77;42.63;;;;;;;;;;5073558;28;20032;-68
2022/03/19 05:55:16;;;;;;;78.90;42.57;;;;;;;;;;5073486;28;20028;-68
2022/03/19 05:57:42;;;;;;;103.53;43.33;;;;;;;;;;5073465;28;20032;-67
2022/03/19 06:00:10;;;;;;;111.80;45.93;;;;;;;;;;5073304;28;20457;-69
2022/03/19 06:02:40;;;;;;;120.87;48.77;;;;;;;;;;5073376;28;20024;-67
2022/03/19 06:05:06;;;;;;;94.87;46.83;;;;;;;;;;5073340;28;20108;-67
2022/03/19 06:07:33;;;;;;;106.57;47.07;;;;;;;;;;5073276;28;20034;-68
2022/03/19 06:09:59;;;;;;;118.87;55.83;;;;;;;;;;5072049;28;20036;-67
2022/03/19 06:12:26;;;;;;;127.57;63.13;;;;;;;;;;5073331;28;20024;-67
2022/03/19 06:14:53;;;;;;;121.73;58.60;;;;;;;;;;5071918;28;20029;-67
2022/03/19 06:17:20;;;;;;;139.80;67.33;;;;;;;;;;5073187;28;20032;-69
2022/03/19 06:19:46;;;;;;;115.23;56.70;;;;;;;;;;5071805;28;20427;-69
2022/03/19 06:22:13;;;;;;;99.97;52.93;;;;;;;;;;5073174;28;20031;-68
2022/03/19 06:24:39;;;;;;;114.17;52.33;;;;;;;;;;5071823;28;20032;-68
2022/03/19 06:27:05;;;;;;;108.43;54.60;;;;;;;;;;5071773;28;20031;-67
2022/03/19 06:29:31;;;;;;;105.03;52.63;;;;;;;;;;5073340;28;20052;-67
2022/03/19 06:31:58;;;;;;;118.57;60.27;;;;;;;;;;5071791;28;20042;-67
2022/03/19 06:34:24;;;;;;;132.10;67.33;;;;;;;;;;5073047;28;20150;-68
2022/03/19 06:39:35;;;;;;;124.47;63.37;;;;;;;;;;5072964;28;20039;-66
2022/03/19 06:42:02;;;;;;;135.18;68.57;;;;;;;;;;5072942;28;20025;-66
2022/03/19 06:44:28;;;;;;;120.95;61.10;;;;;;;;;;5071097;28;20151;-66
2022/03/19 06:46:54;;;;;;;104.27;54.80;;;;;;;;;;5072869;28;20045;-66
2022/03/19 06:49:20;;;;;;;108.45;50.47;;;;;;;;;;5073107;28;20028;-67
2022/03/19 06:51:46;;;;;;;101.95;48.03;;;;;;;;;;5072639;28;20031;-67
2022/03/19 06:54:12;;;;;;;91.25;46.28;;;;;;;;;;5072794;28;20024;-67
2022/03/19 06:56:38;;;;;;;91.72;43.58;;;;;;;;;;5072786;28;20515;-68
2022/03/19 06:59:05;;;;;;;83.28;40.03;;;;;;;;;;5072720;28;20059;-67
2022/03/19 07:01:31;;;;;;;85.70;42.95;;;;;;;;;;5073212;28;20036;-67
2022/03/19 07:03:57;;;;;;;79.53;40.55;;;;;;;;;;5076763;28;20461;-67
2022/03/19 07:06:23;;;;;;;84.85;41.65;;;;;;;;;;5075410;28;20037;-67
2022/03/19 07:08:50;;;;;;;75.13;36.08;;;;;;;;;;5076679;28;20029;-67
2022/03/19 07:11:16;;;;;;;69.38;36.50;;;;;;;;;;5076707;28;20024;-67
2022/03/19 07:13:42;;;;;;;75.57;38.42;;;;;;;;;;5074963;28;20082;-66
2022/03/19 07:16:08;;;;;;;70.65;35.67;;;;;;;;;;5076482;28;20036;-66
2022/03/19 07:18:35;;;;;;;68.07;36.20;;;;;;;;;;5076475;28;20062;-69
2022/03/19 07:21:01;;;;;;;68.95;34.67;;;;;;;;;;5075085;28;20036;-66
2022/03/19 07:23:27;;;;;;;74.28;38.10;;;;;;;;;;5076322;28;20108;-73
2022/03/19 07:25:54;;;;;;;67.72;35.75;;;;;;;;;;5076220;28;20103;-71
2022/03/19 07:28:20;;;;;;;72.78;37.17;;;;;;;;;;5074986;28;20028;-71
2022/03/19 07:30:47;;;;;;;64.32;34.00;;;;;;;;;;5076230;28;20124;-68
2022/03/19 07:33:13;;;;;;;66.78;35.63;;;;;;;;;;5076225;28;20025;-68
2022/03/19 07:35:40;;;;;;;54.72;31.10;;;;;;;;;;5076137;28;20105;-68
2022/03/19 07:38:07;;;;;;;60.63;30.90;;;;;;;;;;5075760;28;20032;-68
2022/03/19 07:43:22;;;;;;;65.47;32.42;;;;;;;;;;5084810;28;20439;-66
2022/03/19 07:45:48;;;;;;;55.30;30.15;;;;;;;;;;5095765;28;20038;-69
2022/03/19 07:48:15;;;;;;;60.15;30.77;;;;;;;;;;5096241;28;20028;-68
2022/03/19 07:50:41;;;;;;;59.65;32.15;;;;;;;;;;5077717;28;20097;-69
2022/03/19 07:53:07;;;;;;;55.80;31.42;;;;;;;;;;5077104;28;20523;-68
2022/03/19 07:55:34;;;;;;;61.38;32.03;;;;;;;;;;5077314;28;20043;-67
2022/03/19 07:58:00;;;;;;;59.10;30.60;;;;;;;;;;5077591;28;20389;-66
2022/03/19 08:00:27;;;;;;;59.85;32.25;;;;;;;;;;5077279;28;20040;-69
2022/03/19 08:02:53;;;;;;;58.40;31.17;;;;;;;;;;5077366;28;20383;-69
2022/03/19 08:05:19;;;;;;;63.65;32.13;;;;;;;;;;5095702;28;20478;-70
2022/03/19 08:07:46;;;;;;;59.97;32.08;;;;;;;;;;5095421;28;20028;-70
2022/03/19 08:10:13;;;;;;;62.25;33.30;;;;;;;;;;5077321;28;20047;-67
2022/03/19 08:12:40;;;;;;;64.35;33.25;;;;;;;;;;5095817;28;20460;-66
2022/03/19 08:15:07;;;;;;;64.45;37.00;;;;;;;;;;5094999;28;20077;-68
2022/03/19 08:17:33;;;;;;;63.28;34.10;;;;;;;;;;5097173;28;20141;-68
2022/03/19 08:20:00;;;;;;;68.47;37.53;;;;;;;;;;5094497;28;20492;-67
2022/03/19 08:22:27;;;;;;;75.60;39.55;;;;;;;;;;5114633;28;20367;-66
2022/03/19 08:24:53;;;;;;;71.22;39.90;;;;;;;;;;5115867;28;20019;-66
2022/03/19 08:27:19;;;;;;;78.78;41.15;;;;;;;;;;5097311;28;20615;-68
2022/03/19 08:29:46;;;;;;;83.82;45.65;;;;;;;;;;5115795;28;20107;-65
2022/03/19 08:32:12;;;;;;;83.55;47.05;;;;;;;;;;5115785;28;20051;-65
2022/03/19 08:34:38;;;;;;;87.30;46.70;;;;;;;;;;5115399;28;20544;-69
2022/03/19 08:37:06;;;;;;;138.43;70.88;;;;;;;;;;5097320;28;20023;-67
2022/03/19 08:42:17;;;;;;;88.80;48.72;;;;;;;;;;5115138;28;20441;-65
2022/03/19 08:44:43;;;;;;;86.65;47.38;;;;;;;;;;5115531;28;20027;-66
2022/03/19 08:47:09;;;;;;;94.65;50.50;;;;;;;;;;5115247;28;20032;-66
2022/03/19 08:49:36;;;;;;;92.15;50.92;;;;;;;;;;5097135;28;20024;-66
2022/03/19 08:52:02;;;;;;;85.30;49.13;;;;;;;;;;5094532;28;20035;-68
2022/03/19 08:54:28;;;;;;;85.70;47.08;;;;;;;;;;5094894;28;20113;-67
2022/03/19 08:56:54;;;;;;;93.53;48.53;;;;;;;;;;5095134;28;20038;-66
2022/03/19 08:59:21;;;;;;;92.85;52.53;;;;;;;;;;5094593;28;20024;-67
2022/03/19 09:01:48;;;;;;;78.30;46.53;;;;;;;;;;5082382;28;20047;-65
2022/03/19 09:04:14;;;;;;;74.30;43.58;;;;;;;;;;5109230;28;20019;-65
2022/03/19 09:06:41;;;;;;;69.53;41.60;;;;;;;;;;5114713;28;20448;-68
2022/03/19 09:09:07;;;;;;;50.78;30.63;;;;;;;;;;5114791;28;20508;-64
2022/03/19 09:11:34;;;;;;;53.78;31.90;;;;;;;;;;5114385;28;20032;-64
2022/03/19 09:14:02;;;;;;;56.78;32.97;;;;;;;;;;5096534;28;20027;-65
2022/03/19 09:16:29;;;;;;;58.40;35.00;;;;;;;;;;5096387;28;20464;-65
2022/03/19 09:18:56;;;;;;;63.00;36.75;;;;;;;;;;5096308;28;20034;-65
2022/03/19 09:21:22;;;;;;;59.08;37.42;;;;;;;;;;5114356;28;20036;-65
2022/03/19 09:23:51;;;;;;;59.72;35.10;;;;;;;;;;5114906;28;20031;-64
2022/03/19 09:26:18;;;;;;;72.60;39.72;;;;;;;;;;5113473;28;20055;-64
2022/03/19 09:28:45;;;;;;;67.05;40.65;;;;;;;;;;5106326;28;20042;-64
2022/03/19 09:31:12;;;;;;;66.13;40.80;;;;;;;;;;5114313;28;20376;-65
2022/03/19 09:33:39;;;;;;;68.90;41.17;;;;;;;;;;5096106;28;20067;-64
2022/03/19 09:36:06;;;;;;;60.58;36.45;;;;;;;;;;5114200;28;20020;-64
2022/03/19 09:38:32;;;;;;;64.35;38.72;;;;;;;;;;5114322;28;20034;-66
2022/03/19 09:40:58;;;;;;;62.63;36.47;;;;;;;;;;5098782;28;20040;-67
2022/03/19 09:43:25;;;;;;;64.65;35.55;;;;;;;;;;5093849;28;20056;-66
2022/03/19 09:45:51;;;;;;;62.58;37.25;;;;;;;;;;5093563;28;20431;-67
2022/03/19 09:48:19;;;;;;;62.90;38.92;;;;;;;;;;5093471;28;20020;-64
2022/03/19 09:50:45;;;;;;;56.78;37.25;;;;;;;;;;5093288;28;20032;-64
2022/03/19 09:53:12;;;;;;;59.17;36.92;;;;;;;;;;5093674;28;20032;-63
2022/03/19 09:55:39;;;;;;;62.47;38.60;;;;;;;;;;5093790;28;20028;-67
2022/03/19 09:58:06;;;;;;;61.72;37.58;;;;;;;;;;5093689;28;20495;-64
2022/03/19 10:00:32;;;;;;;49.33;31.17;;;;;;;;;;5093536;28;20021;-64
2022/03/19 10:03:02;;;;;;;39.83;26.67;;;;;;;;;;5093944;28;20538;-64
2022/03/19 10:08:36;;;;;;;42.10;27.88;;;;;;;;;;5072993;28;20063;-66
2022/03/19 10:11:07;;;;;;;38.55;26.70;;;;;;;;;;5071569;28;20453;-64
2022/03/19 10:13:33;;;;;;;49.10;28.30;;;13.70;69.20;;;;;;5073215;28;20028;-65
2022/03/19 10:15:59;;;;;;;39.60;25.05;;;14.00;78.10;;;;;;5073174;28;20116;-66
2022/03/19 10:18:32;;;;;;;37.05;24.27;;;14.50;86.80;;;;;;5071827;28;20111;-65
2022/03/19 10:21:03;;;;;;;42.53;28.00;;;14.80;65.50;;;;;;5072618;28;20036;-67
2022/03/19 10:23:31;;;;;;;41.22;27.25;;;14.80;65.60;;;;;;5073084;28;20021;-65
2022/03/19 10:25:57;;;;;;;38.08;26.02;;;;;;;;;;5073332;28;20032;-65
2022/03/19 10:28:29;;;;;;;30.83;21.90;;;14.90;66.30;;;;;;5072852;28;20099;-66
2022/03/19 10:30:55;;;;;;;29.50;19.65;;;15.30;64.10;;;;;;5084159;28;20027;-64
2022/03/19 10:33:27;;;;;;;26.92;17.98;;;15.90;63.50;;;;;;5102700;28;20028;-64
2022/03/19 10:36:05;;;;;;;;;;;16.90;60.60;;;;;;5095331;28;20453;-65
2022/03/19 10:38:46;;;;;;;30.25;19.70;;;17.10;59.30;;;;;;5112853;28;19961;-64
2022/03/19 10:41:20;;;;;;;23.13;17.40;;;17.80;60.30;;;;;;5112507;28;20031;-64
2022/03/19 10:43:47;;;;;;;21.52;15.57;;;18.40;57.90;;;;;;5112252;28;20054;-64
2022/03/19 10:46:18;;;;;;;30.48;15.82;;;19.10;57.20;;;;;;5112560;28;20032;-64
2022/03/19 10:48:53;;;;;;;27.58;15.15;;;18.90;52.90;;;;;;5113127;28;20115;-64
2022/03/19 10:51:20;;;;;;;23.67;15.05;;;19.40;52.70;;;;;;5113345;28;20043;-63
2022/03/19 10:53:48;;;;;;;25.77;16.40;;;20.20;53.30;;;;;;5094918;28;20031;-64
2022/03/19 10:56:15;;;;;;;24.63;16.10;;;20.70;50.50;;;;;;5113592;28;20098;-64
2022/03/19 10:58:41;;;;;;;25.10;16.45;;;20.90;50.30;;;;;;5113224;28;20028;-64
2022/03/19 11:01:09;;;;;;;25.85;17.38;;;20.50;50.20;;;;;;5112786;28;20130;-64
2022/03/19 11:03:38;;;;;;;26.55;17.05;;;18.10;52.00;;;;;;5113223;28;20020;-64
2022/03/19 11:06:05;;;;;;;40.38;21.92;;;17.70;54.40;;;;;;5094791;28;20680;-64
2022/03/19 11:08:51;;;;;;;25.15;16.00;;;19.40;52.80;;;;;;5112486;28;20529;-64
2022/03/19 11:11:20;;;;;;;19.52;12.88;;;21.50;48.70;;;;;;5113366;28;20479;-64
2022/03/19 11:13:52;;;;;;;22.77;13.98;;;22.70;48.40;;;;;;5094807;28;20491;-64
2022/03/19 11:16:20;;;;;;;19.38;15.48;;;22.70;46.30;;;;;;5094819;28;20391;-64
2022/03/19 11:18:49;;;;;;;21.63;14.48;;;23.30;44.00;;;;;;5112899;28;20440;-65
2022/03/19 11:21:16;;;;;;;24.17;16.00;;;23.00;43.60;;;;;;5094642;28;20035;-65
2022/03/19 11:23:48;;;;;;;25.50;16.10;;;24.70;42.80;;;;;;5113207;28;20460;-66
2022/03/19 11:26:21;;;;;;;15.73;11.98;;;26.20;41.60;;;;;;5094659;28;20031;-65
2022/03/19 11:28:47;;;;;;;20.70;13.75;;;26.10;38.70;;;;;;5112778;28;20027;-65
2022/03/19 11:31:15;;;;;;;16.90;12.77;;;24.40;40.10;;;;;;5084036;28;20039;-64
2022/03/19 11:33:42;;;;;;;21.40;14.75;;;21.70;41.00;;;;;;5074315;28;20039;-64
2022/03/19 11:36:10;;;;;;;20.88;14.25;;;20.50;45.00;;;;;;5092344;28;20116;-63
2022/03/19 11:38:41;;;;;;;20.48;14.45;;;20.10;44.50;;;;;;5092461;28;20028;-64
2022/03/19 11:41:29;;;;;;;22.13;14.55;;;22.80;44.40;;;;;;5092113;28;20119;-66
2022/03/19 11:44:30;;;;;;;22.27;13.95;;;25.50;42.50;;;;;;5092292;28;20392;-69
2022/03/19 11:47:06;;;;;;;23.50;15.43;;;25.90;38.60;;;;;;4974121;28;20027;-67
2022/03/19 11:49:54;;;;;;;16.05;11.30;;;26.50;37.60;;;;;;4992335;28;20046;-66
2022/03/19 11:52:26;;;;;;;17.05;10.90;;;26.70;38.30;;;;;;4977741;28;20026;-68
2022/03/19 11:55:00;;;;;;;17.92;10.68;;;27.60;35.80;;;;;;4977592;28;20495;-68
2022/03/19 11:57:28;;;;;;;14.98;10.75;;;26.50;35.30;;;;;;4993869;28;20070;-67
2022/03/19 11:59:59;;;;;;;20.05;12.60;;;24.40;38.00;;;;;;4993431;28;20034;-65
2022/03/19 12:02:26;;;;;;;29.02;13.80;;;22.40;41.10;;;;;;4975963;28;20039;-66
2022/03/19 12:04:55;;;;;;;20.35;11.43;;;22.00;41.80;;;;;;4975419;28;20693;-64
2022/03/19 12:07:47;;;;;;;22.45;11.57;;;24.50;39.60;;;;;;4993373;28;20069;-68
2022/03/19 12:10:18;;;;;;;17.90;12.35;;;26.60;37.10;;;;;;4993604;28;20034;-65
2022/03/19 12:12:45;;;;;;;19.52;11.55;;;27.00;37.40;;;;;;4993337;28;20044;-66
2022/03/19 12:15:29;;;;;;;15.32;11.25;;;28.10;36.20;;;;;;4993446;28;20038;-65
2022/03/19 12:18:21;;;;;;;16.10;12.07;;;28.00;35.50;;;;;;4977159;28;20449;-65
2022/03/19 12:20:47;;;;;;;17.67;12.30;;;28.90;35.50;;;;;;5039110;28;20040;-65
2022/03/19 12:23:13;;;;;;;21.05;14.55;;;29.40;35.00;;;;;;5095414;28;20024;-64
2022/03/19 12:26:00;;;;;;;15.65;11.52;;;29.80;34.90;;;;;;5095210;28;20077;-65
2022/03/19 12:28:27;;;;;;;16.52;11.52;;;31.10;33.30;;;;;;5094802;28;20020;-68
2022/03/19 12:30:53;;;;;;;17.33;12.57;;;28.80;33.80;;;;;;5095144;28;20047;-67
2022/03/19 12:33:28;;;;;;;18.83;13.27;;;26.60;35.00;;;;;;5095193;28;20452;-64
2022/03/19 12:35:58;;;;;;;15.77;12.10;;;27.80;35.00;;;;;;5095040;28;20081;-69
2022/03/19 12:38:32;;;;;;;20.15;13.20;;;29.40;34.40;;;;;;5076801;28;20082;-67
2022/03/19 12:43:43;;;;;;;17.63;12.68;;;29.70;33.70;;;;;;5088759;28;20207;-67
2022/03/19 12:46:09;;;;;;;14.07;10.27;;;29.90;39.00;;;;;;5112177;28;20470;-67
2022/03/19 12:48:39;;;;;;;17.40;12.30;;;30.50;31.40;;;;;;5114199;28;20095;-68
2022/03/19 12:51:05;;;;;;;14.52;12.07;;;29.50;31.30;;;;;;5114280;28;20035;-71
2022/03/19 12:53:41;;;;;;;15.77;12.13;;;;;;;;;;5114406;28;20058;-66
2022/03/19 12:56:11;;;;;;;16.00;11.32;;;29.90;32.20;;;;;;5114169;28;20028;-70
2022/03/19 12:58:44;;;;;;;19.55;10.75;;;31.20;33.30;;;;;;5108352;28;20099;-67
2022/03/19 13:01:14;;;;;;;15.15;10.57;;;27.10;31.70;;;;;;5093861;28;20126;-67
2022/03/19 13:03:41;;;;;;;17.42;10.60;;;25.70;33.90;;;;;;5093563;28;20043;-67
2022/03/19 13:06:11;;;;;;;17.23;11.00;;;24.60;34.40;;;;;;5093955;28;20074;-66
2022/03/19 13:08:47;;;;;;;17.33;11.55;;;23.00;35.70;;;;;;5094020;28;20029;-67
2022/03/19 13:11:13;;;;;;;17.63;11.98;;;21.40;38.20;;;;;;5094589;28;20469;-66
2022/03/19 13:13:40;;;;;;;17.20;11.93;;;21.00;39.00;;;;;;5075885;28;20028;-67
2022/03/19 13:16:07;;;;;;;13.48;10.18;;;23.30;38.80;;;;;;5093993;28;20391;-66
2022/03/19 13:18:37;;;;;;;12.43;9.77;;;27.10;33.70;;;;;;5093671;28;20040;-66
2022/03/19 13:21:04;;;;;;;14.98;10.48;;;28.20;32.80;;;;;;5090939;28;20028;-67
2022/03/19 13:23:31;;;;;;;15.32;11.38;;;29.20;32.50;;;;;;5093531;28;20108;-68
2022/03/19 13:25:59;;;;;;;16.50;10.77;;;28.90;31.80;;;;;;5093784;28;20073;-65
2022/03/19 13:28:25;;;;;;;16.70;12.30;;;;;;;;;;5093441;28;20085;-67
2022/03/19 13:30:51;;;;;;;14.07;11.23;;;32.00;32.40;;;;;;5093769;28;20524;-68
2022/03/19 13:33:18;;;;;;;16.58;11.20;;;31.50;31.20;;;;;;5093990;28;20103;-66
2022/03/19 13:35:51;;;;;;;13.90;11.02;;;30.60;31.00;;;;;;5093874;28;20027;-66
2022/03/19 13:38:19;;;;;;;19.08;13.13;;;;;;;;;;5093747;28;20024;-64
2022/03/19 13:40:50;;;;;;;16.67;12.63;;;30.80;40.00;;;;;;5093422;28;20030;-65
2022/03/19 13:43:21;;;;;;;22.77;15.68;;;29.60;31.70;;;;;;5075012;28;20048;-66
2022/03/19 13:45:47;;;;;;;16.77;13.43;;;30.30;32.70;;;;;;5093396;28;20024;-67
2022/03/19 13:48:13;;;;;;;21.58;15.07;;;29.80;32.00;;;;;;5093384;28;20025;-66
2022/03/19 13:50:54;;;;;;;23.27;14.38;;;28.70;32.70;;;;;;5093533;28;20107;-67
2022/03/19 13:53:20;;;;;;;19.02;15.40;;;29.50;33.40;;;;;;5093695;28;20062;-67
2022/03/19 13:55:45;;;;;;;21.95;15.55;;;29.00;33.20;;;;;;5093338;28;20469;-66
2022/03/19 13:58:13;;;;;;;25.27;15.02;;;29.70;33.20;;;;;;5092968;28;20055;-66
2022/03/19 14:00:43;;;;;;;19.40;15.15;;;28.30;32.60;;;;;;5074836;28;20089;-65
2022/03/19 14:03:30;;;;;;;21.08;16.10;;;27.20;32.90;;;;;;5093112;28;20032;-68